Time;durP1;ratioP1;P1;durP2;ratioP2;P2;SDS_P1;SDS_P2;PMS_P1;PMS_P2;Temp;Humidity;BMP_temperature;BMP_pressure;BME280_temperature;BME280_humidity;BME280_pressure;Samples;Min_cycle;Max_cycle;Signal;HPM_P1;HPM_P2
2022/07/18 00:01:28;;;;;;;15.85;6.75;;;15.80;99.90;;;;;;5074455;28;20044;-75
2022/07/18 00:03:53;;;;;;;14.05;6.85;;;15.90;99.90;;;;;;5073365;28;20055;-75
2022/07/18 00:06:19;;;;;;;13.48;7.22;;;15.90;99.90;;;;;;5074304;28;20079;-75
2022/07/18 00:08:45;;;;;;;15.52;8.43;;;15.90;99.90;;;;;;5074842;28;20193;-75
2022/07/18 00:11:11;;;;;;;18.40;8.68;;;15.90;99.90;;;;;;5089962;28;20069;-75
2022/07/18 00:13:36;;;;;;;17.85;9.00;;;15.90;99.90;;;;;;5074046;28;20546;-75
2022/07/18 00:16:02;;;;;;;21.08;9.25;;;15.90;99.90;;;;;;5074186;28;20048;-75
2022/07/18 00:18:28;;;;;;;17.48;8.98;;;16.00;99.90;;;;;;5089727;28;20045;-75
2022/07/18 00:20:54;;;;;;;15.35;8.82;;;16.00;99.90;;;;;;5089638;28;20048;-75
2022/07/18 00:23:20;;;;;;;17.05;10.00;;;16.00;99.90;;;;;;5073836;28;20044;-75
2022/07/18 00:25:45;;;;;;;23.20;9.70;;;16.00;99.90;;;;;;5089718;28;20162;-75
2022/07/18 00:28:11;;;;;;;19.60;9.02;;;16.00;99.90;;;;;;5074013;28;20500;-75
2022/07/18 00:30:38;;;;;;;18.40;9.63;;;15.90;99.90;;;;;;5074015;28;20048;-75
2022/07/18 00:33:04;;;;;;;20.92;9.68;;;16.00;99.90;;;;;;5073988;28;20059;-75
2022/07/18 00:35:30;;;;;;;17.33;9.25;;;15.90;99.90;;;;;;5073824;28;20048;-75
2022/07/18 00:37:55;;;;;;;18.08;9.48;;;15.90;99.90;;;;;;5073819;28;20464;-75
2022/07/18 00:40:21;;;;;;;18.13;10.40;;;16.00;99.90;;;;;;5072627;28;20470;-75
2022/07/18 00:42:47;;;;;;;17.60;9.77;;;15.90;99.90;;;;;;5072393;28;20120;-75
2022/07/18 00:45:12;;;;;;;17.85;9.77;;;15.90;99.90;;;;;;5072453;28;20076;-75
2022/07/18 00:47:38;;;;;;;16.48;10.00;;;15.90;99.90;;;;;;5073782;28;20048;-76
2022/07/18 00:50:06;;;;;;;19.00;9.57;;;15.90;99.90;;;;;;5072677;28;20422;-75
2022/07/18 00:52:33;;;;;;;20.27;10.40;;;15.90;99.90;;;;;;5073856;28;20047;-75
2022/07/18 00:54:59;;;;;;;18.77;10.30;;;15.90;99.90;;;;;;5073632;28;20044;-75
2022/07/18 00:57:25;;;;;;;21.33;10.98;;;15.90;99.90;;;;;;5089309;28;20055;-75
2022/07/18 01:02:36;;;;;;;23.10;11.13;;;15.90;99.90;;;;;;5072780;28;20389;-75
2022/07/18 01:05:03;;;;;;;18.48;10.48;;;15.90;99.90;;;;;;5072286;28;20079;-75
2022/07/18 01:07:28;;;;;;;20.92;11.63;;;15.90;99.90;;;;;;5073618;28;20075;-75
2022/07/18 01:09:54;;;;;;;21.48;10.80;;;15.90;99.90;;;;;;5073334;28;20464;-75
2022/07/18 01:12:20;;;;;;;20.55;10.57;;;15.90;99.90;;;;;;5073570;28;20491;-75
2022/07/18 01:14:46;;;;;;;20.92;11.23;;;15.90;99.90;;;;;;5073372;28;20044;-75
2022/07/18 01:17:17;;;;;;;20.92;11.38;;;15.90;99.90;;;;;;5072239;28;20087;-75
2022/07/18 01:19:43;;;;;;;20.77;10.82;;;15.90;99.90;;;;;;5073294;28;20053;-75
2022/07/18 01:22:10;;;;;;;19.65;10.60;;;15.80;99.90;;;;;;5071849;28;20063;-75
2022/07/18 01:24:37;;;;;;;18.60;10.57;;;15.80;99.90;;;;;;5088836;28;20135;-75
2022/07/18 01:27:03;;;;;;;20.25;11.82;;;15.80;99.90;;;;;;5073788;28;20117;-75
2022/07/18 01:29:28;;;;;;;20.50;11.77;;;15.80;99.90;;;;;;5073342;28;20040;-75
2022/07/18 01:31:54;;;;;;;20.52;10.48;;;15.80;99.90;;;;;;5073393;28;20037;-75
2022/07/18 01:34:23;;;;;;;16.70;10.45;;;15.90;99.90;;;;;;5073249;28;20115;-75
2022/07/18 01:36:49;;;;;;;26.77;10.35;;;15.80;99.90;;;;;;5073494;28;20051;-75
2022/07/18 01:39:14;;;;;;;21.92;11.23;;;15.80;99.90;;;;;;5071855;28;20044;-75
2022/07/18 01:41:40;;;;;;;19.95;10.65;;;15.80;99.90;;;;;;5073245;28;20127;-75
2022/07/18 01:44:06;;;;;;;18.25;9.77;;;15.80;99.90;;;;;;5071908;28;20059;-75
2022/07/18 01:46:32;;;;;;;18.02;9.93;;;15.80;99.90;;;;;;5073223;28;20037;-75
2022/07/18 01:48:58;;;;;;;20.33;9.07;;;15.70;99.90;;;;;;5072922;28;20055;-75
2022/07/18 01:51:24;;;;;;;17.95;9.98;;;15.70;99.90;;;;;;5071987;28;20048;-75
2022/07/18 01:54:01;;;;;;;18.33;9.98;;;15.70;99.90;;;;;;5073103;28;20486;-75
2022/07/18 01:56:27;;;;;;;19.63;10.00;;;15.60;99.90;;;;;;5073007;28;20462;-75
2022/07/18 01:58:53;;;;;;;18.15;9.75;;;15.60;99.90;;;;;;5088632;28;20085;-75
2022/07/18 02:01:18;;;;;;;20.45;10.35;;;15.60;99.90;;;;;;5088963;28;20119;-75
2022/07/18 02:03:44;;;;;;;17.27;9.90;;;15.60;99.90;;;;;;5072846;28;20449;-75
2022/07/18 02:06:09;;;;;;;18.40;9.93;;;15.60;99.90;;;;;;5073047;28;20434;-75
2022/07/18 02:08:35;;;;;;;16.80;9.50;;;15.70;99.90;;;;;;5073009;28;20045;-75
2022/07/18 02:11:01;;;;;;;16.10;10.00;;;15.70;99.90;;;;;;5071768;28;20075;-75
2022/07/18 02:13:26;;;;;;;16.90;10.02;;;15.60;99.90;;;;;;5075197;28;20048;-75
2022/07/18 02:15:55;;;;;;;19.23;9.45;;;15.60;99.90;;;;;;5076471;28;20143;-75
2022/07/18 02:18:21;;;;;;;20.73;11.05;;;15.60;99.90;;;;;;5076455;28;20110;-75
2022/07/18 02:20:46;;;;;;;18.75;10.20;;;15.60;99.90;;;;;;5091883;28;20131;-75
2022/07/18 02:23:12;;;;;;;25.08;10.55;;;15.60;99.90;;;;;;5076369;28;20428;-75
2022/07/18 02:25:38;;;;;;;20.85;10.27;;;15.60;99.90;;;;;;5091946;28;20040;-75
2022/07/18 02:28:04;;;;;;;21.00;9.70;;;15.60;99.90;;;;;;5076306;28;20040;-75
2022/07/18 02:30:30;;;;;;;24.17;11.80;;;15.60;99.90;;;;;;5074987;28;20495;-75
2022/07/18 02:32:56;;;;;;;19.73;10.18;;;15.70;99.90;;;;;;5076228;28;20041;-75
2022/07/18 02:35:22;;;;;;;19.65;10.00;;;15.60;99.90;;;;;;5075975;28;20044;-75
2022/07/18 02:37:47;;;;;;;22.00;10.10;;;15.60;99.90;;;;;;5076104;28;20037;-75
2022/07/18 02:40:13;;;;;;;21.67;9.95;;;15.60;99.90;;;;;;5076102;28;20037;-75
2022/07/18 02:42:39;;;;;;;22.75;10.75;;;15.60;99.90;;;;;;5076123;28;20044;-75
2022/07/18 02:45:06;;;;;;;17.80;10.23;;;15.60;99.90;;;;;;5075951;28;20048;-75
2022/07/18 02:47:33;;;;;;;20.60;10.63;;;15.60;99.90;;;;;;5074458;28;20044;-75
2022/07/18 02:49:58;;;;;;;20.23;10.55;;;15.70;99.90;;;;;;5075967;28;20090;-75
2022/07/18 02:52:24;;;;;;;21.20;11.40;;;15.70;99.90;;;;;;5075725;28;20048;-75
2022/07/18 02:54:50;;;;;;;21.42;10.57;;;15.70;99.90;;;;;;5076001;28;20044;-75
2022/07/18 02:57:15;;;;;;;20.75;10.48;;;15.70;99.90;;;;;;5074747;28;20043;-75
2022/07/18 02:59:41;;;;;;;21.48;10.70;;;15.70;99.90;;;;;;5075619;28;20403;-75
2022/07/18 03:02:07;;;;;;;26.55;12.13;;;15.70;99.90;;;;;;5075918;28;20071;-75
2022/07/18 03:04:32;;;;;;;20.48;10.65;;;15.70;99.90;;;;;;5075603;28;20049;-75
2022/07/18 03:06:58;;;;;;;23.15;11.10;;;15.80;99.90;;;;;;5075535;28;20041;-75
2022/07/18 03:09:26;;;;;;;22.80;11.25;;;15.80;99.90;;;;;;5075294;28;20522;-75
2022/07/18 03:11:54;;;;;;;22.88;11.40;;;15.80;99.90;;;;;;5074451;28;20044;-75
2022/07/18 03:14:20;;;;;;;23.25;11.98;;;15.80;99.90;;;;;;5075341;28;20106;-75
2022/07/18 03:16:46;;;;;;;20.83;10.48;;;15.70;99.90;;;;;;5075362;28;20050;-75
2022/07/18 03:19:12;;;;;;;20.98;10.88;;;15.80;99.90;;;;;;5075292;28;20119;-75
2022/07/18 03:21:37;;;;;;;21.77;9.95;;;15.80;99.90;;;;;;5074889;28;20091;-75
2022/07/18 03:24:03;;;;;;;21.73;10.70;;;15.80;99.90;;;;;;5089737;28;20048;-75
2022/07/18 03:26:29;;;;;;;23.65;12.48;;;15.80;99.90;;;;;;5073575;28;20044;-74
2022/07/18 03:28:55;;;;;;;19.95;10.95;;;15.70;99.90;;;;;;5090017;28;20506;-74
2022/07/18 03:31:21;;;;;;;23.13;11.27;;;15.70;99.90;;;;;;5089912;28;20048;-74
2022/07/18 03:33:46;;;;;;;22.65;10.45;;;15.70;99.90;;;;;;5073428;28;20395;-75
2022/07/18 03:36:12;;;;;;;19.77;10.55;;;15.70;99.90;;;;;;5074653;28;20127;-75
2022/07/18 03:38:42;;;;;;;21.38;11.32;;;15.70;99.90;;;;;;5073412;28;20522;-74
2022/07/18 03:41:11;;;;;;;20.88;10.93;;;15.70;99.90;;;;;;5074849;28;20048;-74
2022/07/18 03:43:40;;;;;;;24.30;12.43;;;15.70;99.90;;;;;;5090436;28;20056;-74
2022/07/18 03:46:06;;;;;;;21.08;10.55;;;15.70;99.90;;;;;;5073318;28;20044;-74
2022/07/18 03:48:32;;;;;;;22.35;10.93;;;15.70;99.90;;;;;;5073425;28;20048;-74
2022/07/18 03:50:58;;;;;;;19.65;10.48;;;15.80;99.90;;;;;;5073377;28;20048;-74
2022/07/18 03:53:24;;;;;;;25.77;11.07;;;15.80;99.90;;;;;;5074301;28;20509;-74
2022/07/18 03:55:50;;;;;;;23.55;11.15;;;15.80;99.90;;;;;;5074413;28;20097;-75
2022/07/18 03:58:16;;;;;;;20.83;10.07;;;15.80;99.90;;;;;;5072981;28;20091;-75
2022/07/18 04:00:41;;;;;;;24.17;10.73;;;15.90;99.90;;;;;;5090143;28;20080;-75
2022/07/18 04:03:07;;;;;;;22.60;10.65;;;15.90;99.90;;;;;;5074422;28;20494;-75
2022/07/18 04:05:33;;;;;;;19.05;10.07;;;15.90;99.90;;;;;;5074247;28;20036;-75
2022/07/18 04:07:59;;;;;;;22.38;10.85;;;15.90;99.90;;;;;;5072784;28;20448;-75
2022/07/18 04:10:25;;;;;;;23.23;9.93;;;16.00;99.90;;;;;;5089825;28;20045;-74
2022/07/18 04:12:53;;;;;;;20.25;10.68;;;16.00;99.90;;;;;;5074210;28;20041;-74
2022/07/18 04:15:20;;;;;;;24.55;10.70;;;16.00;99.90;;;;;;5074103;28;20076;-75
2022/07/18 04:17:46;;;;;;;25.33;11.48;;;16.10;99.90;;;;;;5074114;28;20037;-75
2022/07/18 04:20:13;;;;;;;20.92;11.50;;;16.10;99.90;;;;;;5089369;28;20573;-74
2022/07/18 04:22:49;;;;;;;24.80;11.10;;;16.10;99.90;;;;;;5073865;28;20052;-74
2022/07/18 04:25:15;;;;;;;22.52;10.02;;;16.20;99.90;;;;;;5089637;28;20052;-74
2022/07/18 04:27:41;;;;;;;26.10;11.90;;;16.20;99.90;;;;;;5073693;28;20499;-74
2022/07/18 04:30:07;;;;;;;18.75;9.52;;;16.20;99.90;;;;;;5073684;28;20055;-74
2022/07/18 04:32:33;;;;;;;19.15;9.70;;;16.20;99.90;;;;;;5072773;28;20114;-75
2022/07/18 04:34:59;;;;;;;19.13;9.80;;;16.20;99.90;;;;;;5073423;28;20491;-75
2022/07/18 04:37:25;;;;;;;22.67;10.50;;;16.30;99.90;;;;;;5089427;28;20056;-75
2022/07/18 04:39:50;;;;;;;20.75;10.43;;;16.30;99.90;;;;;;5089417;28;20040;-74
2022/07/18 04:42:16;;;;;;;19.02;10.07;;;16.30;99.90;;;;;;5089256;28;20536;-74
2022/07/18 04:44:42;;;;;;;20.67;9.90;;;16.30;99.90;;;;;;5073828;28;20049;-74
2022/07/18 04:47:07;;;;;;;22.75;10.00;;;16.40;99.90;;;;;;5089420;28;20044;-75
2022/07/18 04:49:33;;;;;;;22.83;9.98;;;16.40;99.90;;;;;;5073795;28;20040;-74
2022/07/18 04:51:59;;;;;;;20.33;9.27;;;16.40;99.90;;;;;;5073676;28;20040;-75
2022/07/18 04:54:24;;;;;;;28.35;9.30;;;16.40;99.90;;;;;;5073363;28;20063;-74
2022/07/18 04:56:50;;;;;;;20.92;9.82;;;16.40;99.90;;;;;;5073643;28;20033;-74
2022/07/18 04:59:16;;;;;;;22.08;9.40;;;16.50;99.90;;;;;;5073327;28;20052;-75
2022/07/18 05:01:42;;;;;;;17.25;9.23;;;16.50;99.90;;;;;;5073345;28;20140;-75
2022/07/18 05:04:07;;;;;;;18.42;8.35;;;16.60;99.90;;;;;;5072351;28;20055;-74
2022/07/18 05:06:33;;;;;;;17.27;8.45;;;16.60;99.90;;;;;;5073165;28;20044;-75
2022/07/18 05:08:58;;;;;;;21.30;8.48;;;16.70;99.90;;;;;;5073504;28;20032;-74
2022/07/18 05:11:24;;;;;;;16.33;8.18;;;16.70;99.90;;;;;;5073467;28;20040;-75
2022/07/18 05:13:50;;;;;;;15.95;8.35;;;16.70;99.90;;;;;;5073178;28;20140;-75
2022/07/18 05:16:15;;;;;;;17.90;8.43;;;16.80;99.90;;;;;;5073457;28;20041;-75
2022/07/18 05:18:41;;;;;;;18.02;8.20;;;16.80;99.90;;;;;;5073104;28;20446;-75
2022/07/18 05:21:06;;;;;;;16.70;7.72;;;16.80;99.90;;;;;;5088594;28;20504;-74
2022/07/18 05:23:32;;;;;;;16.63;8.07;;;16.90;99.90;;;;;;5073036;28;20048;-75
2022/07/18 05:25:58;;;;;;;17.95;8.50;;;16.90;99.90;;;;;;5088866;28;20040;-75
2022/07/18 05:28:24;;;;;;;16.92;7.97;;;16.90;99.90;;;;;;5072138;28;20055;-74
2022/07/18 05:30:49;;;;;;;14.35;8.32;;;16.90;99.90;;;;;;5073345;28;20094;-74
2022/07/18 05:33:15;;;;;;;18.73;8.07;;;16.90;99.90;;;;;;5073057;28;20044;-74
2022/07/18 05:35:41;;;;;;;16.42;7.70;;;16.90;99.90;;;;;;5088773;28;20060;-75
2022/07/18 05:38:06;;;;;;;16.77;8.20;;;16.90;99.90;;;;;;5072902;28;20117;-74
2022/07/18 05:40:32;;;;;;;18.00;7.78;;;17.00;99.90;;;;;;5088597;28;20434;-75
2022/07/18 05:42:58;;;;;;;15.35;8.05;;;17.00;99.90;;;;;;5073230;28;20076;-75
2022/07/18 05:45:24;;;;;;;16.92;7.90;;;17.00;99.90;;;;;;5073018;28;20052;-75
2022/07/18 05:47:51;;;;;;;19.67;7.93;;;17.10;99.90;;;;;;5073374;28;20072;-75
2022/07/18 05:50:17;;;;;;;19.13;7.85;;;17.20;99.90;;;;;;5076602;28;20418;-75
2022/07/18 05:52:42;;;;;;;16.13;7.70;;;17.30;99.90;;;;;;5092331;28;20480;-75
2022/07/18 05:55:09;;;;;;;17.48;7.43;;;17.30;99.90;;;;;;5075423;28;20055;-75
2022/07/18 05:57:35;;;;;;;14.90;6.88;;;17.40;99.90;;;;;;5076573;28;20045;-75
2022/07/18 06:00:05;;;;;;;15.80;7.32;;;17.50;99.90;;;;;;5076494;28;20041;-75
2022/07/18 06:02:31;;;;;;;14.95;7.68;;;17.50;99.90;;;;;;5092391;28;20502;-75
2022/07/18 06:04:57;;;;;;;17.30;8.02;;;17.70;99.90;;;;;;5076451;28;20086;-75
2022/07/18 06:07:23;;;;;;;17.25;7.57;;;17.70;99.90;;;;;;5092308;28;20467;-75
2022/07/18 06:09:48;;;;;;;20.02;7.05;;;17.70;99.90;;;;;;5075347;28;20051;-75
2022/07/18 06:12:15;;;;;;;16.92;6.75;;;17.80;99.90;;;;;;5091938;28;20032;-75
2022/07/18 06:14:41;;;;;;;17.00;7.75;;;17.80;99.90;;;;;;5076126;28;20446;-75
2022/07/18 06:17:06;;;;;;;17.58;7.38;;;17.90;99.90;;;;;;5075000;28;20479;-75
2022/07/18 06:19:32;;;;;;;14.27;7.63;;;18.00;99.90;;;;;;5076353;28;20041;-76
2022/07/18 06:21:59;;;;;;;15.38;7.25;;;18.00;99.90;;;;;;5078407;28;20084;-75
2022/07/18 06:24:24;;;;;;;17.63;7.70;;;18.10;99.90;;;;;;5083204;28;20080;-74
2022/07/18 06:26:50;;;;;;;14.68;7.70;;;18.10;99.90;;;;;;5075829;28;20447;-75
2022/07/18 06:29:16;;;;;;;14.63;7.68;;;18.10;99.90;;;;;;5074871;28;20036;-74
2022/07/18 06:31:42;;;;;;;16.88;8.15;;;18.20;99.90;;;;;;5076056;28;20399;-74
2022/07/18 06:34:08;;;;;;;16.27;7.80;;;18.30;99.90;;;;;;5075565;28;20549;-75
2022/07/18 06:36:34;;;;;;;18.00;7.75;;;18.40;99.90;;;;;;5075706;28;20048;-74
2022/07/18 06:39:00;;;;;;;24.27;8.35;;;18.50;99.90;;;;;;5091231;28;20112;-74
2022/07/18 06:41:25;;;;;;;22.92;7.97;;;18.60;99.90;;;;;;5074325;28;20447;-75
2022/07/18 06:43:51;;;;;;;16.48;7.70;;;18.70;99.90;;;;;;5075794;28;20556;-74
2022/07/18 06:46:17;;;;;;;16.35;7.47;;;19.00;99.90;;;;;;5075840;28;20052;-74
2022/07/18 06:48:42;;;;;;;16.92;7.90;;;19.10;99.90;;;;;;5075460;28;20053;-74
2022/07/18 06:51:08;;;;;;;16.38;6.88;;;19.30;99.90;;;;;;5075389;28;20045;-74
2022/07/18 06:53:34;;;;;;;14.55;6.95;;;19.50;99.90;;;;;;5074043;28;20399;-75
2022/07/18 06:56:04;;;;;;;13.20;7.07;;;19.70;99.90;;;;;;5075563;28;20123;-75
2022/07/18 06:58:30;;;;;;;16.60;6.60;;;19.80;99.90;;;;;;5074933;28;20040;-75
2022/07/18 07:00:57;;;;;;;15.80;7.50;;;19.90;99.90;;;;;;5075014;28;20043;-75
2022/07/18 07:03:22;;;;;;;14.68;6.25;;;19.90;99.90;;;;;;5073898;28;20041;-75
2022/07/18 07:05:48;;;;;;;14.60;6.93;;;19.90;99.90;;;;;;5073887;28;20082;-75
2022/07/18 07:08:14;;;;;;;11.95;5.65;;;19.90;99.90;;;;;;5073862;28;20495;-75
2022/07/18 07:10:40;;;;;;;13.70;5.53;;;20.00;99.90;;;;;;5075401;28;20051;-75
2022/07/18 07:13:06;;;;;;;13.65;5.55;;;20.00;99.90;;;;;;5075058;28;20048;-74
2022/07/18 07:15:32;;;;;;;12.65;6.43;;;20.10;99.90;;;;;;5073562;28;20056;-74
2022/07/18 07:17:58;;;;;;;14.15;5.97;;;20.10;99.90;;;;;;5075024;28;20127;-75
2022/07/18 07:20:23;;;;;;;12.43;5.88;;;20.10;99.90;;;;;;5074909;28;20078;-75
2022/07/18 07:22:54;;;;;;;13.88;6.22;;;20.10;99.90;;;;;;5073919;28;20049;-74
2022/07/18 07:25:21;;;;;;;15.27;5.85;;;20.10;99.90;;;;;;5075076;28;20040;-75
2022/07/18 07:27:47;;;;;;;14.75;6.00;;;20.20;99.90;;;;;;5075036;28;20076;-75
2022/07/18 07:30:14;;;;;;;15.57;6.78;;;20.20;99.90;;;;;;5073361;28;20083;-74
2022/07/18 07:32:42;;;;;;;17.17;7.28;;;20.30;99.90;;;;;;5074871;28;20041;-75
2022/07/18 07:35:12;;;;;;;12.20;5.72;;;20.50;99.90;;;;;;5073290;28;20063;-75
2022/07/18 07:37:40;;;;;;;14.40;5.05;;;20.70;99.90;;;;;;5074852;28;20115;-75
2022/07/18 07:40:06;;;;;;;11.77;5.40;;;20.90;99.90;;;;;;5073293;28;20049;-75
2022/07/18 07:42:32;;;;;;;11.88;5.72;;;20.90;99.90;;;;;;5075955;28;20506;-75
2022/07/18 07:44:58;;;;;;;9.25;4.80;;;21.00;99.90;;;;;;5088621;28;20044;-75
2022/07/18 07:47:23;;;;;;;14.65;5.93;;;21.00;99.90;;;;;;5094561;28;20069;-74
2022/07/18 07:49:49;;;;;;;10.07;5.60;;;21.10;99.90;;;;;;5094455;28;20062;-74
2022/07/18 07:52:16;;;;;;;13.82;5.30;;;21.20;99.90;;;;;;5092901;28;20485;-74
2022/07/18 07:54:44;;;;;;;10.40;5.28;;;21.20;99.90;;;;;;5092989;28;20126;-74
2022/07/18 07:57:09;;;;;;;11.43;5.30;;;21.20;99.90;;;;;;5094645;28;20048;-74
2022/07/18 07:59:35;;;;;;;11.57;5.45;;;21.20;99.90;;;;;;5092816;28;20090;-75
2022/07/18 08:02:00;;;;;;;9.55;4.90;;;21.30;99.90;;;;;;5092913;28;20044;-76
2022/07/18 08:04:26;;;;;;;9.25;4.78;;;21.50;99.90;;;;;;5093319;28;20689;-76
2022/07/18 08:06:52;;;;;;;12.98;5.07;;;21.70;99.90;;;;;;5093189;28;20044;-76
2022/07/18 08:09:17;;;;;;;11.40;5.18;;;22.10;99.90;;;;;;5092969;28;20122;-76
2022/07/18 08:11:43;;;;;;;12.02;4.88;;;22.30;99.90;;;;;;5093730;28;20135;-76
2022/07/18 08:14:09;;;;;;;11.30;4.90;;;22.50;99.90;;;;;;5086301;28;20494;-76
2022/07/18 08:16:34;;;;;;;10.68;5.15;;;22.70;99.90;;;;;;5075281;28;20131;-76
2022/07/18 08:19:00;;;;;;;11.85;4.60;;;22.80;99.90;;;;;;5074054;28;20043;-76
2022/07/18 08:21:26;;;;;;;11.60;5.20;;;22.90;99.90;;;;;;5072331;28;20056;-76
2022/07/18 08:23:52;;;;;;;8.43;3.92;;;23.00;99.90;;;;;;5072434;28;20540;-75
2022/07/18 08:26:17;;;;;;;14.02;4.10;;;23.00;99.90;;;;;;5072580;28;20141;-75
2022/07/18 08:28:43;;;;;;;8.68;3.65;;;23.00;99.90;;;;;;5073427;28;20590;-75
2022/07/18 08:31:09;;;;;;;13.98;3.85;;;22.90;99.90;;;;;;5073555;28;20086;-75
2022/07/18 08:33:35;;;;;;;9.88;4.07;;;23.00;99.90;;;;;;5072309;28;20093;-76
2022/07/18 08:36:00;;;;;;;9.15;3.60;;;22.90;99.90;;;;;;5073577;28;20124;-76
2022/07/18 08:38:26;;;;;;;9.07;3.63;;;22.90;99.90;;;;;;5073594;28;20381;-76
2022/07/18 08:40:53;;;;;;;9.52;4.10;;;22.80;99.90;;;;;;5073464;28;20049;-76
2022/07/18 08:43:19;;;;;;;9.40;3.40;;;22.80;99.90;;;;;;5075129;28;20049;-76
2022/07/18 08:45:46;;;;;;;12.85;3.88;;;22.80;99.90;;;;;;5081922;28;20048;-76
2022/07/18 08:48:18;;;;;;;17.95;4.03;;;22.80;99.90;;;;;;5071979;28;20049;-75
2022/07/18 08:50:48;;;;;;;8.77;3.53;;;22.90;99.90;;;;;;5072333;28;20060;-76
2022/07/18 08:53:15;;;;;;;13.55;3.42;;;22.90;99.90;;;;;;5073516;28;20045;-76
2022/07/18 08:55:42;;;;;;;7.85;3.40;;;23.00;99.90;;;;;;5073224;28;20055;-76
2022/07/18 08:58:09;;;;;;;9.07;2.88;;;23.00;99.90;;;;;;5073189;28;20048;-76
2022/07/18 09:00:35;;;;;;;12.60;3.30;;;23.10;99.90;;;;;;5073191;28;20455;-76
2022/07/18 09:03:03;;;;;;;8.77;3.47;;;23.30;99.90;;;;;;5073381;28;20535;-76
2022/07/18 09:05:30;;;;;;;8.98;3.55;;;23.30;99.90;;;;;;5073101;28;20384;-75
2022/07/18 09:08:12;;;;;;;8.70;2.72;;;23.50;99.90;;;;;;5073178;28;20052;-76
2022/07/18 09:10:55;;;;;;;10.45;3.65;;;23.60;99.90;;;;;;5073098;28;20097;-76
2022/07/18 09:13:45;;;;;;;8.27;2.80;;;23.90;99.90;;;;;;5074554;28;20398;-75
2022/07/18 09:16:13;;;;;;;8.73;3.75;;;24.00;99.90;;;;;;5087590;28;20048;-76
2022/07/18 09:18:44;;;;;;;7.55;2.95;;;24.30;99.90;;;;;;5093473;28;20098;-76
2022/07/18 09:21:18;;;;;;;10.98;2.80;;;24.40;99.90;;;;;;5108741;28;20070;-76
2022/07/18 09:23:48;;;;;;;6.35;3.53;;;24.60;99.90;;;;;;5090134;28;20054;-76
2022/07/18 09:26:37;;;;;;;6.80;2.70;;;24.70;99.90;;;;;;5080764;28;20086;-76
2022/07/18 09:29:03;;;;;;;7.70;2.60;;;24.80;99.90;;;;;;5076056;28;20106;-76
2022/07/18 09:31:30;;;;;;;9.88;3.95;;;24.80;99.90;;;;;;5077203;28;20044;-76
2022/07/18 09:34:00;;;;;;;6.45;3.00;;;25.00;99.90;;;;;;5074109;28;20068;-75
2022/07/18 09:36:27;;;;;;;8.13;3.03;;;25.10;99.90;;;;;;5073914;28;20040;-75
2022/07/18 09:38:53;;;;;;;12.23;3.20;;;25.10;99.90;;;;;;5074005;28;20041;-75
2022/07/18 09:41:27;;;;;;;8.02;2.65;;;25.20;99.90;;;;;;5076463;28;20495;-75
2022/07/18 09:43:53;;;;;;;7.75;2.92;;;25.40;99.90;;;;;;5075895;28;20044;-75
2022/07/18 09:46:19;;;;;;;9.30;3.00;;;25.50;99.90;;;;;;5075507;28;20052;-75
2022/07/18 09:48:44;;;;;;;7.15;3.08;;;25.60;99.90;;;;;;5075412;28;20049;-75
2022/07/18 09:51:10;;;;;;;9.68;3.58;;;25.60;99.90;;;;;;5075567;28;20060;-82
2022/07/18 09:53:44;;;;;;;9.20;3.25;;;25.60;99.90;;;;;;5077254;28;20044;-75
2022/07/18 09:56:12;;;;;;;6.90;2.72;;;25.80;99.90;;;;;;5096728;28;20051;-85
2022/07/18 09:58:40;;;;;;;10.85;3.88;;;26.00;99.90;;;;;;5112627;28;20048;-83
2022/07/18 10:01:08;;;;;;;10.15;4.18;;;26.00;99.90;;;;;;5096345;28;20081;-83
2022/07/18 10:03:34;;;;;;;12.60;4.40;;;26.00;99.90;;;;;;5095452;28;20044;-84
2022/07/18 10:06:01;;;;;;;9.70;5.07;;;26.10;99.90;;;;;;5096721;28;20040;-83
2022/07/18 10:08:32;;;;;;;12.45;4.93;;;26.10;99.90;;;;;;5096378;28;20048;-82
2022/07/18 10:10:59;;;;;;;7.50;3.65;;;26.10;99.90;;;;;;5094913;28;20059;-84
2022/07/18 10:13:26;;;;;;;8.68;3.70;;;26.20;99.90;;;;;;5095059;28;20044;-84
2022/07/18 10:15:52;;;;;;;10.70;3.70;;;26.50;99.90;;;;;;5094998;28;20059;-84
2022/07/18 10:18:26;;;;;;;10.52;3.42;;;26.50;99.90;;;;;;5094944;28;20060;-85
2022/07/18 10:21:02;;;;;;;6.93;3.60;;;26.70;99.50;;;;;;5094738;28;20056;-83
2022/07/18 10:23:31;;;;;;;10.98;4.28;;;26.90;99.80;;;;;;5096348;28;20095;-82
2022/07/18 10:26:13;;;;;;;10.90;3.53;;;27.00;99.80;;;;;;5096341;28;20044;-85
2022/07/18 10:28:58;;;;;;;7.32;3.97;;;27.20;98.90;;;;;;5096260;28;20052;-84
2022/07/18 10:31:38;;;;;;;8.77;3.30;;;27.20;98.30;;;;;;5094739;28;20079;-84
2022/07/18 10:34:07;;;;;;;7.93;3.33;;;27.10;97.70;;;;;;5094417;28;20048;-82
2022/07/18 10:36:37;;;;;;;16.67;3.90;;;27.10;97.90;;;;;;5094478;28;20568;-82
2022/07/18 10:39:07;;;;;;;8.55;3.92;;;27.40;99.90;;;;;;5095988;28;20115;-82
2022/07/18 10:41:57;;;;;;;8.57;3.65;;;27.60;96.50;;;;;;5095782;28;20080;-82
2022/07/18 10:44:29;;;;;;;10.90;4.22;;;27.70;98.40;;;;;;5080108;28;20060;-83
2022/07/18 10:47:10;;;;;;;9.65;3.70;;;28.00;98.40;;;;;;5094562;28;20048;-74
2022/07/18 10:49:51;;;;;;;11.18;3.97;;;28.10;98.00;;;;;;5094299;28;20056;-85
2022/07/18 10:52:29;;;;;;;14.85;4.30;;;28.20;94.50;;;;;;5095655;28;20051;-75
2022/07/18 10:57:37;;;;;;;10.57;5.18;;;28.30;95.00;;;;;;5095634;28;20076;-75
2022/07/18 11:00:15;;;;;;;10.95;4.65;;;28.30;88.20;;;;;;5094109;28;20044;-87
2022/07/18 11:02:59;;;;;;;13.05;4.80;;;28.40;91.80;;;;;;5093048;28;20044;-85
2022/07/18 11:05:25;;;;;;;8.80;4.50;;;28.60;94.20;;;;;;5094614;28;20087;-83
2022/07/18 11:08:06;;;;;;;10.60;4.38;;;28.70;89.90;;;;;;5094287;28;20434;-75
2022/07/18 11:13:28;;;;;;;11.50;5.95;;;28.60;79.10;;;;;;5095368;28;20048;-76
2022/07/18 11:16:07;;;;;;;11.35;6.00;;;28.80;83.60;;;;;;5095420;28;20127;-74
2022/07/18 11:18:39;;;;;;;10.60;4.70;;;28.80;84.20;;;;;;5094239;28;20501;-76
2022/07/18 11:21:23;;;;;;;11.90;4.88;;;28.90;85.10;;;;;;5093726;28;20056;-76
2022/07/18 11:23:59;;;;;;;10.70;5.72;;;28.60;74.40;;;;;;5095020;28;20498;-76
2022/07/18 11:26:25;;;;;;;12.70;6.13;;;28.80;81.60;;;;;;5095117;28;20055;-76
2022/07/18 11:29:02;;;;;;;11.32;5.88;;;29.00;81.70;;;;;;5094923;28;20363;-76
2022/07/18 11:31:29;;;;;;;9.55;5.30;;;29.10;81.80;;;;;;5093957;28;20048;-77
2022/07/18 11:33:56;;;;;;;12.10;6.30;;;29.20;85.30;;;;;;5095079;28;20036;-76
2022/07/18 11:36:28;;;;;;;9.45;5.82;;;29.10;80.10;;;;;;5093801;28;20079;-75
2022/07/18 11:38:58;;;;;;;13.38;6.10;;;29.20;82.50;;;;;;5094983;28;20048;-76
2022/07/18 11:41:24;;;;;;;10.52;6.07;;;29.40;77.70;;;;;;5095066;28;20073;-75
2022/07/18 11:43:52;;;;;;;10.90;5.90;;;29.50;81.80;;;;;;5093707;28;20048;-75
2022/07/18 11:46:20;;;;;;;11.38;5.45;;;29.70;77.80;;;;;;5093055;28;20268;-75
2022/07/18 11:48:56;;;;;;;13.80;6.75;;;29.70;76.20;;;;;;5093269;28;20135;-76
2022/07/18 11:51:22;;;;;;;10.60;6.15;;;29.60;67.50;;;;;;5093353;28;20528;-75
2022/07/18 11:53:53;;;;;;;10.23;5.78;;;29.80;74.80;;;;;;5094667;28;20047;-76
2022/07/18 11:56:21;;;;;;;13.98;5.65;;;29.90;73.00;;;;;;5093279;28;20052;-75
2022/07/18 11:58:49;;;;;;;9.63;4.20;;;29.90;71.10;;;;;;5094351;28;20479;-76
2022/07/18 12:01:15;;;;;;;8.50;3.70;;;30.10;85.50;;;;;;5093073;28;20059;-76
2022/07/18 12:03:44;;;;;;;8.98;4.55;;;30.20;90.90;;;;;;5094268;28;20044;-79
2022/07/18 12:06:21;;;;;;;6.15;3.45;;;30.10;91.10;;;;;;5093266;28;20063;-77
2022/07/18 12:08:52;;;;;;;10.15;3.75;;;29.80;83.50;;;;;;5094537;28;20044;-78
2022/07/18 12:11:29;;;;;;;8.23;4.20;;;29.70;89.10;;;;;;5093224;28;20060;-76
2022/07/18 12:14:00;;;;;;;7.55;3.28;;;29.70;93.30;;;;;;5092762;28;20105;-76
2022/07/18 12:16:37;;;;;;;6.70;3.35;;;29.80;94.90;;;;;;5094261;28;20075;-75
2022/07/18 12:19:10;;;;;;;8.00;2.92;;;29.70;91.20;;;;;;5094249;28;20114;-80
2022/07/18 12:21:54;;;;;;;9.32;3.40;;;29.80;92.60;;;;;;5092601;28;20071;-82
2022/07/18 12:24:25;;;;;;;7.00;2.97;;;29.80;82.90;;;;;;5093785;28;20043;-80
2022/07/18 12:27:13;;;;;;;6.95;2.70;;;29.90;93.30;;;;;;5094038;28;20040;-79
2022/07/18 12:30:03;;;;;;;11.65;3.60;;;29.90;92.90;;;;;;5094362;28;20044;-80
2022/07/18 12:32:45;;;;;;;5.90;3.08;;;29.90;85.60;;;;;;5092536;28;20087;-80
2022/07/18 12:35:25;;;;;;;10.00;2.75;;;30.10;94.90;;;;;;5093659;28;20048;-81
2022/07/18 12:38:00;;;;;;;6.65;2.72;;;29.90;90.80;;;;;;5092479;28;20055;-82
2022/07/18 12:40:38;;;;;;;7.20;2.85;;;29.90;86.60;;;;;;5093801;28;20111;-83
2022/07/18 12:43:10;;;;;;;11.02;3.22;;;30.00;94.00;;;;;;5092355;28;20051;-80
2022/07/18 12:45:36;;;;;;;4.95;2.97;;;30.00;93.40;;;;;;5093706;28;20048;-81
2022/07/18 12:48:03;;;;;;;5.80;2.67;;;30.00;94.40;;;;;;5092353;28;20479;-81